createdAt,value
2023-04-17T00:03:34.656Z,35.35
2023-04-17T00:08:36.497Z,33.78
2023-04-17T00:13:37.917Z,31.25
2023-04-17T00:18:39.785Z,32.85
2023-04-17T00:23:41.515Z,30.35
2023-04-17T00:28:43.089Z,31.05
2023-04-17T00:33:46.265Z,30.00
2023-04-17T00:38:47.914Z,30.27
2023-04-17T00:43:49.387Z,26.95
2023-04-17T00:48:51.114Z,28.58
2023-04-17T00:53:52.708Z,29.10
2023-04-17T00:58:54.766Z,29.42
2023-04-17T01:03:56.595Z,28.20
2023-04-17T01:08:58.260Z,28.27
2023-04-17T01:13:59.796Z,26.02
2023-04-17T01:19:01.375Z,26.10
2023-04-17T01:24:03.468Z,29.30
2023-04-17T01:29:04.958Z,30.08
2023-04-17T01:34:06.409Z,25.45
2023-04-17T01:39:07.946Z,31.58
2023-04-17T01:44:09.422Z,25.65
2023-04-17T01:49:11.774Z,23.98
2023-04-17T01:54:15.570Z,25.25
2023-04-17T01:59:17.235Z,31.98
2023-04-17T02:04:19.041Z,32.42
2023-04-17T02:09:20.540Z,28.63
2023-04-17T02:14:22.036Z,27.17
2023-04-17T02:19:23.659Z,26.50
2023-04-17T02:24:25.381Z,28.00
2023-04-17T02:29:26.868Z,29.92
2023-04-17T02:34:28.362Z,28.02
2023-04-17T02:39:31.264Z,30.50
2023-04-17T02:44:32.712Z,24.67
2023-04-17T02:49:34.211Z,26.83
2023-04-17T02:54:35.728Z,29.65
2023-04-17T02:59:37.221Z,28.17
2023-04-17T03:04:39.959Z,26.20
2023-04-17T03:09:43.135Z,29.05
2023-04-17T03:14:44.598Z,28.67
2023-04-17T03:19:46.226Z,33.20
2023-04-17T03:24:47.764Z,32.60
2023-04-17T03:29:49.167Z,35.80
2023-04-17T03:34:50.727Z,31.98
2023-04-17T03:39:52.259Z,34.70
2023-04-17T03:44:53.707Z,38.30
2023-04-17T03:49:55.138Z,37.05
2023-04-17T03:54:57.006Z,38.45
2023-04-17T03:59:58.509Z,37.58
2023-04-17T04:05:00.075Z,39.03
2023-04-17T04:10:01.641Z,34.45
2023-04-17T04:15:03.174Z,35.70
2023-04-17T04:20:05.354Z,37.22
2023-04-17T04:25:07.084Z,37.40
2023-04-17T04:30:10.146Z,38.63
2023-04-17T04:35:12.083Z,43.28
2023-04-17T04:40:16.436Z,40.80
2023-04-17T04:45:18.905Z,38.72
2023-04-17T04:50:20.745Z,33.13
2023-04-17T04:55:22.281Z,37.65
2023-04-17T05:00:23.938Z,34.83
2023-04-17T05:05:25.619Z,36.55
2023-04-17T05:10:27.217Z,38.92
2023-04-17T05:15:28.750Z,37.47
2023-04-17T05:20:30.875Z,33.10
2023-04-17T05:25:32.496Z,34.80
2023-04-17T05:30:34.112Z,35.10
2023-04-17T05:35:35.800Z,40.85
2023-04-17T05:40:37.360Z,37.47
2023-04-17T05:45:39.181Z,35.92
2023-04-17T05:50:40.726Z,33.65
2023-04-17T05:55:42.267Z,35.05
2023-04-17T06:00:44.002Z,35.38
2023-04-17T06:05:47.246Z,35.33
2023-04-17T06:10:50.194Z,35.35
2023-04-17T06:15:51.653Z,31.25
2023-04-17T06:20:53.487Z,33.83
2023-04-17T06:25:56.007Z,29.90
2023-04-17T06:30:57.508Z,31.00
2023-04-17T06:35:59.079Z,29.75
2023-04-17T06:41:00.629Z,27.98
2023-04-17T06:46:02.111Z,27.77
2023-04-17T06:51:04.083Z,27.77
2023-04-17T06:56:05.910Z,26.67
2023-04-17T07:01:07.355Z,24.75
2023-04-17T07:06:09.227Z,24.40
2023-04-17T07:11:10.911Z,24.13
2023-04-17T07:16:12.391Z,25.77
2023-04-17T07:21:13.980Z,24.08
2023-04-17T07:26:15.465Z,30.52
2023-04-17T07:31:16.955Z,23.25
2023-04-17T07:36:18.818Z,28.90
2023-04-17T07:41:20.457Z,24.60
2023-04-17T07:46:22.025Z,23.33
2023-04-17T07:51:23.718Z,25.65
2023-04-17T07:56:26.207Z,25.80
2023-04-17T08:01:27.831Z,24.20
2023-04-17T08:06:29.292Z,25.60
2023-04-17T08:11:30.861Z,24.92
2023-04-17T08:16:32.667Z,26.40
2023-04-17T08:21:34.277Z,25.88
2023-04-17T08:26:35.935Z,23.98
2023-04-17T08:31:37.354Z,28.58
2023-04-17T08:36:40.696Z,26.98
2023-04-17T08:41:50.526Z,26.65
2023-04-17T08:51:53.506Z,24.80
2023-04-17T08:56:55.039Z,25.10
2023-04-17T09:02:00.452Z,28.70
2023-04-17T09:07:02.121Z,23.48
2023-04-17T09:12:12.934Z,23.88
2023-04-17T09:17:17.418Z,22.52
2023-04-17T09:22:20.058Z,22.58
2023-04-17T09:27:25.453Z,25.42
2023-04-17T09:32:27.379Z,24.88
2023-04-17T09:37:48.706Z,24.33
2023-04-17T09:42:54.112Z,25.88
2023-04-17T09:47:58.471Z,23.77
2023-04-17T09:53:00.643Z,25.80
2023-04-17T09:58:03.630Z,26.98
2023-04-17T10:03:07.156Z,27.27
2023-04-17T10:08:08.990Z,32.65
2023-04-17T10:13:11.550Z,28.98
2023-04-17T10:18:20.932Z,28.02
2023-04-17T10:23:35.261Z,26.08
2023-04-17T10:28:49.408Z,31.33
2023-04-17T10:33:57.115Z,29.90
2023-04-17T10:39:12.267Z,27.85
2023-04-17T10:44:13.836Z,28.77
2023-04-17T10:49:15.445Z,30.33
2023-04-17T10:54:17.069Z,28.77
2023-04-17T10:59:23.459Z,29.05
2023-04-17T11:04:28.874Z,29.90
2023-04-17T11:09:31.033Z,30.23
2023-04-17T11:14:32.621Z,29.65
2023-04-17T11:19:34.247Z,27.15
2023-04-17T11:24:35.948Z,29.40
2023-04-17T11:29:37.485Z,33.80
2023-04-17T11:34:39.057Z,30.42
2023-04-17T11:39:42.175Z,29.65
2023-04-17T11:44:44.581Z,29.77
2023-04-17T11:49:47.057Z,30.20
2023-04-17T11:54:57.096Z,28.55
2023-04-17T11:59:58.589Z,31.67
2023-04-17T12:05:13.077Z,29.60
2023-04-17T12:10:14.676Z,30.02
2023-04-17T12:15:16.323Z,29.67
2023-04-17T12:20:17.974Z,27.50
2023-04-17T12:25:19.567Z,29.20
2023-04-17T12:30:21.052Z,26.25
2023-04-17T12:35:23.151Z,30.23
2023-04-17T12:40:25.340Z,29.35
2023-04-17T12:45:26.952Z,26.92
2023-04-17T12:50:28.527Z,26.60
2023-04-17T12:55:30.041Z,26.60
2023-04-17T13:00:32.968Z,30.20
2023-04-17T13:05:34.549Z,34.20
2023-04-17T13:10:36.063Z,30.40
2023-04-17T13:15:37.541Z,25.60
2023-04-17T13:20:39.092Z,22.60
2023-04-17T13:25:40.601Z,27.05
2023-04-17T13:30:42.215Z,24.10
2023-04-17T13:35:43.802Z,25.45
2023-04-17T13:40:45.337Z,27.70
2023-04-17T13:45:47.007Z,29.60
2023-04-17T13:50:48.637Z,26.38
2023-04-17T13:55:50.897Z,22.30
2023-04-17T14:00:52.403Z,24.58
2023-04-17T14:05:54.879Z,23.65
2023-04-17T14:10:56.343Z,23.88
2023-04-17T14:15:57.920Z,23.58
2023-04-17T14:20:59.440Z,24.40
2023-04-17T14:26:00.907Z,27.02
2023-04-17T14:31:02.488Z,23.80
2023-04-17T14:36:05.806Z,25.73
2023-04-17T14:41:08.220Z,24.67
2023-04-17T14:46:09.811Z,26.85
2023-04-17T14:51:14.317Z,23.83
2023-04-17T14:56:16.068Z,26.73
2023-04-17T15:01:17.798Z,24.40
2023-04-17T15:06:20.069Z,25.90
2023-04-17T15:11:21.539Z,23.63
2023-04-17T15:16:23.048Z,21.85
2023-04-17T15:21:24.653Z,27.48
2023-04-17T15:26:27.505Z,22.13
2023-04-17T15:31:29.191Z,20.98
2023-04-17T15:36:34.436Z,25.15
2023-04-17T15:41:39.388Z,24.63
2023-04-17T15:46:41.132Z,21.60
2023-04-17T15:51:42.845Z,24.88
2023-04-17T15:56:44.418Z,23.77
2023-04-17T16:01:46.217Z,25.27
2023-04-17T16:06:47.770Z,24.73
2023-04-17T16:11:49.258Z,29.08
2023-04-17T16:16:50.849Z,25.02
2023-04-17T16:21:52.523Z,24.23
2023-04-17T16:26:58.382Z,25.15
2023-04-17T16:32:00.272Z,25.00
2023-04-17T16:37:03.415Z,27.63
2023-04-17T16:42:04.915Z,26.63
2023-04-17T16:47:13.587Z,28.45
2023-04-17T16:57:17.877Z,26.15
2023-04-17T17:02:19.569Z,27.63
2023-04-17T17:07:21.092Z,25.80
2023-04-17T17:12:22.654Z,29.05
2023-04-17T17:17:24.220Z,24.70
2023-04-17T17:22:25.865Z,25.08
2023-04-17T17:27:27.298Z,25.65
2023-04-17T17:32:28.861Z,27.05
2023-04-17T17:37:30.625Z,29.10
2023-04-17T17:42:32.170Z,27.02
2023-04-17T17:47:33.956Z,26.25
2023-04-17T17:52:35.687Z,28.85
2023-04-17T17:57:48.280Z,29.33
2023-04-17T18:02:51.174Z,26.95
2023-04-17T18:07:53.058Z,24.60
2023-04-17T18:12:54.827Z,26.90
2023-04-17T18:17:56.519Z,25.85
2023-04-17T18:22:58.188Z,23.83
2023-04-17T18:27:59.611Z,23.35
2023-04-17T18:33:01.185Z,20.45
2023-04-17T18:38:02.911Z,23.33
2023-04-17T18:43:05.832Z,21.00
2023-04-17T18:48:07.605Z,22.38
2023-04-17T18:53:09.048Z,25.30
2023-04-17T18:58:10.649Z,21.65
2023-04-17T19:03:12.188Z,23.80
2023-04-17T19:08:15.091Z,22.67
2023-04-17T19:13:16.616Z,24.98
2023-04-17T19:18:18.132Z,25.88
2023-04-17T19:23:19.745Z,24.33
2023-04-17T19:28:21.486Z,21.23
2023-04-17T19:33:23.090Z,24.73
2023-04-17T19:38:26.084Z,20.13
2023-04-17T19:43:27.569Z,26.30
2023-04-17T19:48:29.023Z,23.10
2023-04-17T19:53:31.293Z,22.90
2023-04-17T19:58:32.872Z,23.75
2023-04-17T20:03:35.695Z,22.33
2023-04-17T20:08:37.335Z,22.67
2023-04-17T20:13:39.105Z,22.77
2023-04-17T20:18:41.813Z,24.02
2023-04-17T20:23:43.783Z,22.65
2023-04-17T20:28:45.381Z,24.42
2023-04-17T20:33:46.967Z,24.00
2023-04-17T20:38:49.035Z,22.08
2023-04-17T20:43:58.327Z,22.10
2023-04-17T20:48:59.864Z,24.35
2023-04-17T20:54:01.374Z,25.20
2023-04-17T20:59:02.844Z,21.15
2023-04-17T21:04:04.872Z,25.45
2023-04-17T21:09:06.476Z,25.10
2023-04-17T21:14:08.164Z,24.42
2023-04-17T21:19:09.803Z,21.75
2023-04-17T21:24:11.549Z,24.40
2023-04-17T21:29:14.739Z,21.35
2023-04-17T21:34:16.251Z,22.17
2023-04-17T21:39:17.736Z,22.80
2023-04-17T21:44:19.207Z,24.33
2023-04-17T21:49:21.113Z,22.95
2023-04-17T21:54:24.061Z,23.13
2023-04-17T21:59:25.542Z,21.42
2023-04-17T22:04:27.563Z,22.67
2023-04-17T22:09:29.282Z,20.70
2023-04-17T22:14:30.849Z,21.55
2023-04-17T22:19:32.342Z,26.25
2023-04-17T22:25:11.617Z,23.83
2023-04-17T22:30:31.470Z,18.42
2023-04-17T22:35:51.647Z,21.83
2023-04-17T22:45:54.521Z,20.88
2023-04-17T22:50:56.679Z,19.60
2023-04-17T22:56:02.391Z,18.55
2023-04-17T23:01:04.054Z,22.58
2023-04-17T23:06:05.610Z,20.92
2023-04-17T23:11:07.716Z,19.70
2023-04-17T23:16:09.354Z,20.67
2023-04-17T23:21:11.064Z,18.35
2023-04-17T23:26:14.789Z,19.75
2023-04-17T23:31:16.484Z,19.10
2023-04-17T23:36:17.961Z,18.77
2023-04-17T23:41:20.135Z,18.42
2023-04-17T23:46:21.929Z,16.67
2023-04-17T23:51:23.446Z,19.83
2023-04-17T23:56:24.929Z,17.05
